Time;durP1;ratioP1;P1;durP2;ratioP2;P2;SDS_P1;SDS_P2;PMS_P1;PMS_P2;Temp;Humidity;BMP_temperature;BMP_pressure;BME280_temperature;BME280_humidity;BME280_pressure;Samples;Min_cycle;Max_cycle;Signal;HPM_P1;HPM_P2
2021/05/20 00:00:54;;;;;;;5.22;1.73;;;;;;;9.16;66.06;100077.94;4968995;28;20050;-78
2021/05/20 00:03:25;;;;;;;9.73;2.10;;;;;;;9.42;65.33;100085.88;4988084;28;20038;-80
2021/05/20 00:05:55;;;;;;;7.45;1.92;;;;;;;9.43;65.40;100078.94;4983191;28;20134;-76
2021/05/20 00:08:24;;;;;;;7.50;3.33;;;;;;;9.57;65.01;100083.31;4988133;28;20073;-76
2021/05/20 00:10:52;;;;;;;6.55;1.95;;;;;;;9.56;65.62;100078.09;4985876;28;20108;-79
2021/05/20 00:13:19;;;;;;;6.30;2.25;;;;;;;9.44;66.37;100076.34;4998745;28;20057;-78
2021/05/20 00:15:48;;;;;;;9.50;2.20;;;;;;;9.86;64.81;100086.00;5001135;28;20057;-77
2021/05/20 00:18:18;;;;;;;8.02;1.95;;;;;;;9.99;64.21;100077.31;4996252;28;20057;-78
2021/05/20 00:20:46;;;;;;;6.32;1.55;;;;;;;10.02;64.05;100084.28;5001475;28;20069;-77
2021/05/20 00:23:14;;;;;;;9.32;2.35;;;;;;;9.94;64.38;100070.34;4988310;28;20061;-77
2021/05/20 00:25:45;;;;;;;12.63;2.13;;;;;;;9.93;64.63;100082.50;4955677;28;21023;-77
2021/05/20 00:28:12;;;;;;;9.52;2.10;;;;;;;9.75;64.65;100076.38;4970176;28;20053;-76
2021/05/20 00:30:39;;;;;;;7.57;2.50;;;;;;;9.65;65.22;100070.28;4961730;28;20055;-78
2021/05/20 00:33:07;;;;;;;8.65;2.63;;;;;;;9.79;65.11;100067.69;4962822;28;20064;-77
2021/05/20 00:35:35;;;;;;;10.70;2.70;;;;;;;9.99;64.03;100063.38;4964361;28;20062;-76
2021/05/20 00:38:02;;;;;;;4.63;2.22;;;;;;;10.02;64.08;100076.44;4962457;28;20147;-76
2021/05/20 00:40:33;;;;;;;8.07;2.72;;;;;;;10.08;63.70;100063.38;4933467;28;20050;-77
2021/05/20 00:43:01;;;;;;;4.45;2.00;;;;;;;9.95;63.62;100069.47;4949603;28;20043;-77
2021/05/20 00:45:28;;;;;;;6.43;1.48;;;;;;;9.84;63.44;100065.97;4956326;28;20047;-76
2021/05/20 00:47:55;;;;;;;9.68;2.00;;;;;;;9.75;63.96;100066.81;4951335;28;20058;-77
2021/05/20 00:50:23;;;;;;;6.40;2.30;;;;;;;9.82;63.98;100066.00;4953420;28;20474;-76
2021/05/20 00:52:50;;;;;;;8.60;2.03;;;;;;;9.89;64.09;100070.31;4935731;28;20056;-79
2021/05/20 00:55:20;;;;;;;4.60;1.80;;;;;;;9.87;63.64;100068.59;4948846;28;20050;-76
2021/05/20 00:57:50;;;;;;;8.05;2.17;;;;;;;9.74;64.41;100062.47;4946677;28;20416;-77
2021/05/20 01:00:18;;;;;;;6.38;1.80;;;;;;;9.66;63.67;100063.34;4907431;28;20486;-77
2021/05/20 01:02:47;;;;;;;12.02;2.55;;;;;;;9.58;64.11;100058.09;4961454;28;20141;-77
2021/05/20 01:05:17;;;;;;;8.00;2.55;;;;;;;9.56;64.08;100062.44;4978332;28;20058;-77
2021/05/20 01:07:45;;;;;;;11.70;2.45;;;;;;;9.48;63.85;100058.94;4958437;28;20477;-77
2021/05/20 01:10:12;;;;;;;3.58;1.90;;;;;;;9.60;63.70;100062.44;4962772;28;20050;-76
2021/05/20 01:12:40;;;;;;;7.15;1.95;;;;;;;9.48;64.74;100057.22;4962424;28;20050;-76
2021/05/20 01:15:29;;;;;;;7.45;2.60;;;;;;;9.46;64.41;100058.94;4924153;29;20052;-74
2021/05/20 01:18:03;;;;;;;11.07;2.58;;;;;;;9.65;63.74;100057.25;4913545;29;20095;-76
2021/05/20 01:20:41;;;;;;;9.40;2.05;;;;;;;9.52;64.37;100058.09;4938823;28;20050;-76
2021/05/20 01:23:20;;;;;;;12.98;3.35;;;;;;;9.64;64.00;100047.66;4923469;28;20055;-75
2021/05/20 01:25:50;;;;;;;6.82;2.53;;;;;;;9.49;64.05;100045.06;4928300;29;20491;-75
2021/05/20 01:28:21;;;;;;;10.27;2.83;;;;;;;9.73;63.79;100050.31;4896758;29;20507;-77
2021/05/20 01:30:50;;;;;;;10.20;2.55;;;;;;;9.87;63.35;100047.72;4941504;28;20057;-77
2021/05/20 01:33:20;;;;;;;12.00;2.58;;;;;;;9.71;64.11;100048.56;4941000;28;20055;-76
2021/05/20 01:35:48;;;;;;;3.85;2.15;;;;;;;9.69;64.33;100048.53;4918941;29;20479;-76
2021/05/20 01:40:59;;;;;;;5.47;2.15;;;;;;;9.70;64.26;100042.47;4919718;29;20432;-77
2021/05/20 01:43:28;;;;;;;5.18;2.55;;;;;;;9.38;64.24;100045.00;4905748;29;20112;-76
2021/05/20 01:45:59;;;;;;;7.35;2.60;;;;;;;9.16;64.28;100035.34;4893300;28;20351;-76
2021/05/20 01:48:29;;;;;;;6.25;2.33;;;;;;;9.02;64.40;100034.44;4930109;28;20080;-76
2021/05/20 01:51:06;;;;;;;6.95;1.83;;;;;;;9.18;63.90;100031.03;4958669;28;20046;-75
2021/05/20 01:53:34;;;;;;;8.23;2.00;;;;;;;8.76;64.75;100026.53;4931618;28;20051;-77
2021/05/20 01:56:03;;;;;;;8.93;2.50;;;;;;;8.73;64.86;100029.97;4936221;28;20043;-77
2021/05/20 01:58:31;;;;;;;8.40;2.63;;;;;;;8.52;65.68;100021.16;4975465;28;20037;-76
2021/05/20 02:00:58;;;;;;;8.13;2.40;;;;;;;8.65;65.66;100010.81;4970525;28;20047;-77
2021/05/20 02:03:26;;;;;;;3.42;2.05;;;;;;;8.70;65.70;100010.84;4980507;28;20061;-76
2021/05/20 02:05:54;;;;;;;3.80;1.77;;;;;;;8.63;65.98;99999.53;4982518;28;20401;-77
2021/05/20 02:08:21;;;;;;;12.90;2.63;;;;;;;8.62;66.58;99999.53;4996239;28;20057;-76
2021/05/20 02:10:48;;;;;;;6.80;2.33;;;;;;;8.68;66.20;99989.16;4996342;28;20057;-77
2021/05/20 02:13:15;;;;;;;10.05;2.25;;;;;;;8.70;65.95;99993.50;4985178;28;20061;-77
2021/05/20 02:15:42;;;;;;;7.93;2.35;;;;;;;8.45;66.82;99989.00;4984059;28;20047;-76
2021/05/20 02:18:09;;;;;;;5.47;2.25;;;;;;;8.45;66.86;99985.53;4984608;28;20132;-76
2021/05/20 02:20:37;;;;;;;7.72;2.08;;;;;;;8.49;67.03;99988.16;4981961;28;20056;-76
2021/05/20 02:23:05;;;;;;;7.00;2.35;;;;;;;8.55;67.27;99982.13;4998049;28;20050;-77
2021/05/20 02:25:33;;;;;;;8.77;2.45;;;;;;;8.85;66.29;99977.06;4998194;28;20049;-76
2021/05/20 02:28:00;;;;;;;10.15;2.28;;;;;;;8.83;66.37;99991.81;4982168;28;20034;-76
2021/05/20 02:30:28;;;;;;;9.55;2.70;;;;;;;8.74;67.10;99982.22;4987188;28;20049;-75
2021/05/20 02:32:56;;;;;;;10.20;3.33;;;;;;;8.92;66.66;99985.78;4998133;28;20123;-76
2021/05/20 02:35:24;;;;;;;5.35;3.38;;;;;;;9.04;66.23;99975.38;4986648;28;20065;-74
2021/05/20 02:37:51;;;;;;;8.15;3.20;;;;;;;8.92;66.38;99973.59;4983866;28;20058;-77
2021/05/20 02:40:19;;;;;;;8.70;3.22;;;;;;;9.05;65.84;99972.78;5002129;28;20499;-75
2021/05/20 02:44:50;;;;;;;12.25;3.13;;;;;;;9.08;65.53;99978.00;4994948;28;20149;-75
2021/05/20 02:47:17;;;;;;;13.05;3.83;;;;;;;9.05;65.69;99966.72;5008428;28;20054;-75
2021/05/20 02:49:44;;;;;;;9.52;3.03;;;;;;;8.61;65.43;99964.81;5003617;28;20472;-75
2021/05/20 02:52:11;;;;;;;4.60;2.10;;;;;;;8.53;65.78;99963.03;4988195;28;20501;-75
2021/05/20 02:54:40;;;;;;;4.90;2.08;;;;;;;7.78;66.63;99957.28;5008237;28;20053;-75
2021/05/20 02:57:07;;;;;;;4.60;2.03;;;;;;;8.21;65.66;99955.00;5006208;28;20445;-78
2021/05/20 02:59:36;;;;;;;4.78;2.13;;;;;;;8.09;65.67;99965.34;5006533;28;20458;-75
2021/05/20 03:02:06;;;;;;;3.72;1.55;;;;;;;7.90;65.93;99953.94;4982095;28;20051;-76
2021/05/20 03:04:34;;;;;;;5.65;2.03;;;;;;;7.90;65.81;99951.31;4990312;28;20139;-76
2021/05/20 03:07:03;;;;;;;6.10;1.80;;;;;;;7.68;66.56;99939.00;4981078;28;20109;-77
2021/05/20 03:09:30;;;;;;;4.18;2.40;;;;;;;7.38;67.37;99940.50;4997001;28;20092;-76
2021/05/20 03:11:59;;;;;;;6.68;1.95;;;;;;;7.69;66.46;99936.41;4984383;28;20059;-77
2021/05/20 03:14:27;;;;;;;6.47;3.08;;;;;;;7.70;67.82;99935.56;4984024;28;20134;-77
2021/05/20 03:16:58;;;;;;;7.13;3.35;;;;;;;7.85;67.39;99937.41;4982115;28;20094;-75
2021/05/20 03:19:25;;;;;;;8.15;2.28;;;;;;;7.70;67.08;99935.56;5003394;28;20054;-76
2021/05/20 03:21:52;;;;;;;7.03;2.42;;;;;;;7.62;66.99;99937.25;4992640;28;20054;-76
2021/05/20 03:24:19;;;;;;;6.07;2.22;;;;;;;7.61;67.10;99937.22;4988627;28;20053;-76
2021/05/20 03:26:46;;;;;;;7.03;3.10;;;;;;;7.72;67.32;99936.44;5004674;28;20050;-76
2021/05/20 03:29:13;;;;;;;4.38;2.38;;;;;;;7.50;67.75;99928.44;5004326;28;20128;-76
2021/05/20 03:31:40;;;;;;;4.15;2.38;;;;;;;7.52;67.33;99918.94;4999533;28;20119;-76
2021/05/20 03:34:07;;;;;;;6.10;2.70;;;;;;;7.60;67.64;99917.28;4980327;28;20058;-76
2021/05/20 03:36:35;;;;;;;6.30;2.90;;;;;;;7.60;67.38;99910.34;4989712;28;20149;-76
2021/05/20 03:39:03;;;;;;;8.57;2.33;;;;;;;7.59;66.83;99910.31;4978194;28;20110;-76
2021/05/20 03:41:30;;;;;;;6.80;2.65;;;;;;;7.74;66.52;99900.03;4982869;28;20058;-76
2021/05/20 03:43:57;;;;;;;9.75;3.28;;;;;;;7.53;68.26;99898.13;4986056;28;20050;-76
2021/05/20 03:46:28;;;;;;;8.20;3.22;;;;;;;7.83;67.27;99894.91;4990456;28;20039;-76
2021/05/20 03:48:55;;;;;;;6.82;3.03;;;;;;;7.77;67.49;99900.09;4999045;28;20442;-77
2021/05/20 03:51:23;;;;;;;5.05;2.65;;;;;;;7.85;66.85;99893.19;4992729;28;20049;-76
2021/05/20 03:53:50;;;;;;;3.25;2.10;;;;;;;7.54;67.48;99888.63;5006134;28;20420;-78
2021/05/20 03:56:17;;;;;;;6.63;2.53;;;;;;;7.96;66.44;99882.88;4968337;28;20505;-76
2021/05/20 03:58:44;;;;;;;10.60;2.45;;;;;;;8.11;66.30;99883.81;4978177;28;20467;-76
2021/05/20 04:01:11;;;;;;;4.78;2.60;;;;;;;8.15;66.06;99884.72;4981814;28;20524;-76
2021/05/20 04:03:38;;;;;;;4.55;2.65;;;;;;;8.15;66.21;99879.50;4958334;28;20082;-76
2021/05/20 04:06:05;;;;;;;7.30;2.83;;;;;;;8.15;66.02;99874.31;4972299;28;20050;-77
2021/05/20 04:08:36;;;;;;;7.03;3.30;;;;;;;7.75;67.56;99875.78;4992522;28;20058;-76
2021/05/20 04:11:04;;;;;;;7.53;3.28;;;;;;;7.84;68.13;99870.66;4969652;28;20129;-75
2021/05/20 04:13:33;;;;;;;9.68;3.45;;;;;;;8.18;67.05;99864.78;4971628;28;20050;-75
2021/05/20 04:16:02;;;;;;;10.23;3.63;;;;;;;8.10;66.50;99861.28;4969249;28;20100;-74
2021/05/20 04:18:29;;;;;;;8.82;2.53;;;;;;;8.47;66.06;99861.44;4955520;28;20119;-76
2021/05/20 04:20:57;;;;;;;5.95;2.95;;;;;;;8.74;66.08;99854.59;4967357;28;20047;-75
2021/05/20 04:23:24;;;;;;;4.28;2.58;;;;;;;9.06;64.83;99854.66;4973542;28;20117;-78
2021/05/20 04:25:52;;;;;;;7.88;2.88;;;;;;;9.38;63.78;99851.19;4954126;28;20062;-76
2021/05/20 04:28:19;;;;;;;7.60;2.97;;;;;;;9.40;63.02;99852.91;4978104;28;20054;-76
2021/05/20 04:30:47;;;;;;;5.90;2.60;;;;;;;9.55;62.81;99852.03;4971998;28;20121;-76
2021/05/20 04:33:15;;;;;;;7.65;2.70;;;;;;;10.02;62.00;99855.44;4977088;28;20074;-76
2021/05/20 04:35:43;;;;;;;5.53;2.53;;;;;;;10.18;60.88;99845.84;4974733;28;20449;-75
2021/05/20 04:38:10;;;;;;;12.30;3.45;;;;;;;10.17;60.09;99844.13;4984388;28;20599;-76
2021/05/20 04:40:39;;;;;;;3.92;2.35;;;;;;;10.26;59.76;99835.41;4975248;28;20528;-75
2021/05/20 04:43:06;;;;;;;3.15;2.47;;;;;;;10.30;59.33;99831.91;4982711;28;20055;-76
2021/05/20 04:45:37;;;;;;;11.23;2.58;;;;;;;10.63;58.29;99823.91;4975325;28;20053;-78
2021/05/20 04:48:05;;;;;;;6.17;2.27;;;;;;;11.28;57.38;99827.78;4953042;28;20474;-76
2021/05/20 04:50:32;;;;;;;9.65;2.47;;;;;;;12.36;56.20;99827.59;4979446;28;20089;-76
2021/05/20 04:52:59;;;;;;;7.88;2.53;;;;;;;13.65;52.25;99825.66;4971872;28;20047;-77
2021/05/20 04:55:26;;;;;;;5.72;2.08;;;;;;;14.44;49.37;99818.00;4977529;28;20064;-77
2021/05/20 04:57:53;;;;;;;6.75;2.30;;;;;;;14.84;47.79;99810.97;4970512;28;20046;-80
2021/05/20 05:00:22;;;;;;;6.43;1.92;;;;;;;15.40;45.96;99825.41;4988661;28;20146;-77
2021/05/20 05:02:50;;;;;;;4.30;1.85;;;;;;;16.20;44.33;99821.59;4964858;28;20497;-78
2021/05/20 05:05:20;;;;;;;4.07;1.98;;;;;;;17.14;42.17;99814.34;4988895;28;20058;-76
2021/05/20 05:07:47;;;;;;;5.57;1.90;;;;;;;17.67;40.92;99809.06;4961109;28;20498;-77
2021/05/20 05:10:14;;;;;;;10.20;2.10;;;;;;;18.25;39.01;99816.69;4965517;28;20144;-75
2021/05/20 05:12:43;;;;;;;3.85;2.03;;;;;;;18.37;38.03;99814.50;4968620;28;20095;-75
2021/05/20 05:15:10;;;;;;;4.10;2.35;;;;;;;18.21;37.23;99807.13;4983027;28;20166;-77
2021/05/20 05:17:38;;;;;;;5.47;2.22;;;;;;;17.77;39.01;99805.22;4975445;28;20101;-76
2021/05/20 05:20:07;;;;;;;8.65;2.80;;;;;;;17.74;38.56;99798.25;4980639;28;20058;-76
2021/05/20 05:22:34;;;;;;;9.43;2.50;;;;;;;17.51;39.46;99800.78;4969292;28;20102;-75
2021/05/20 05:25:01;;;;;;;6.18;2.40;;;;;;;16.83;40.75;99811.81;4971037;28;20371;-75
2021/05/20 05:27:29;;;;;;;6.18;2.72;;;;;;;16.26;42.02;99800.31;4987453;28;20084;-76
2021/05/20 05:29:55;;;;;;;6.57;2.42;;;;;;;16.05;42.21;99793.88;4981059;28;20450;-76
2021/05/20 05:32:23;;;;;;;10.27;2.20;;;;;;;15.46;43.37;99783.13;4987722;28;20437;-76
2021/05/20 05:34:50;;;;;;;6.30;2.60;;;;;;;14.83;45.83;99786.44;4988066;28;20060;-79
2021/05/20 05:38:00;;;;;;;9.60;2.90;;;;;;;14.37;47.30;99780.50;5064932;27;20852;-75
2021/05/20 05:40:29;;;;;;;12.23;3.25;;;;;;;14.07;49.08;99774.06;5060334;28;20079;-76
2021/05/20 05:42:55;;;;;;;8.27;3.15;;;;;;;13.70;49.20;99766.06;5042776;28;20069;-77
2021/05/20 05:45:22;;;;;;;8.95;2.70;;;;;;;13.61;50.21;99762.72;5047457;28;20080;-77
2021/05/20 05:47:50;;;;;;;17.35;3.17;;;;;;;13.74;50.35;99758.97;5067230;28;20472;-76
2021/05/20 05:50:17;;;;;;;14.93;3.30;;;;;;;13.79;50.26;99752.75;5078600;28;20577;-84
2021/05/20 05:52:44;;;;;;;10.48;3.28;;;;;;;14.14;49.83;99748.53;5070021;28;20063;-83
2021/05/20 05:55:11;;;;;;;12.23;3.47;;;;;;;14.00;50.13;99750.59;5057648;28;20072;-83
2021/05/20 05:57:38;;;;;;;16.20;4.35;;;;;;;13.75;50.82;99756.31;5030467;28;20059;-82
2021/05/20 06:00:09;;;;;;;12.60;3.58;;;;;;;13.41;52.39;99737.72;5065534;28;20049;-83
2021/05/20 06:02:36;;;;;;;8.35;3.45;;;;;;;13.14;53.94;99734.72;5046934;28;20037;-83
2021/05/20 06:05:04;;;;;;;9.77;3.15;;;;;;;12.66;55.67;99745.06;5031816;28;20611;-80
2021/05/20 06:07:35;;;;;;;8.30;3.03;;;;;;;12.49;56.69;99739.19;5042380;28;20045;-83
2021/05/20 06:10:05;;;;;;;13.35;3.15;;;;;;;12.53;56.96;99719.91;5030908;28;20069;-82
2021/05/20 06:12:32;;;;;;;7.78;3.00;;;;;;;12.11;58.38;99724.88;5048773;28;20044;-85
2021/05/20 06:15:00;;;;;;;8.88;2.60;;;;;;;12.22;58.62;99725.63;5042160;28;20148;-84
2021/05/20 06:17:28;;;;;;;5.43;2.75;;;;;;;12.16;58.83;99714.34;5044416;28;20049;-83
2021/05/20 06:19:55;;;;;;;9.70;2.83;;;;;;;12.17;58.67;99716.09;5050285;28;20535;-83
2021/05/20 06:26:30;;;;;;;11.18;2.92;;;;;;;12.16;58.95;99712.59;5040091;28;20052;-84
2021/05/20 06:28:59;;;;;;;8.02;3.38;;;;;;;11.79;60.06;99703.47;5044654;28;20053;-84
2021/05/20 06:31:26;;;;;;;8.85;3.30;;;;;;;11.83;60.46;99699.06;5034298;28;20040;-84
2021/05/20 06:33:54;;;;;;;14.00;3.75;;;;;;;11.79;60.41;99688.66;5050475;28;20045;-84
2021/05/20 06:36:24;;;;;;;11.85;2.75;;;;;;;11.62;60.41;99689.69;5030379;28;20045;-81
2021/05/20 06:40:12;;;;;;;7.25;3.13;;;;;;;11.54;61.15;99686.28;5083462;27;20148;-83
2021/05/20 06:42:39;;;;;;;12.27;3.20;;;;;;;11.70;60.72;99675.63;5062900;28;20048;-83
2021/05/20 06:45:07;;;;;;;7.10;2.85;;;;;;;11.59;60.98;99672.28;5074883;28;20600;-84
2021/05/20 06:47:34;;;;;;;10.32;2.65;;;;;;;11.62;60.86;99664.38;5093703;28;20095;-83
2021/05/20 06:50:03;;;;;;;16.38;3.85;;;;;;;11.16;62.44;99665.78;5076254;28;20067;-84
2021/05/20 06:52:30;;;;;;;6.07;2.90;;;;;;;11.64;61.58;99667.00;5026083;28;20052;-84
2021/05/20 06:54:57;;;;;;;10.57;3.65;;;;;;;11.94;61.14;99657.91;5023450;28;20064;-83
2021/05/20 06:59:57;;;;;;;14.95;3.63;;;;;;;12.23;60.43;99642.63;5010875;28;20041;-84
2021/05/20 07:02:52;;;;;;;9.10;3.50;;;;;;;12.19;60.61;99636.59;4996264;28;20118;-80
2021/05/20 07:05:20;;;;;;;7.53;3.00;;;;;;;12.35;59.88;99636.34;5020878;28;20040;-84
2021/05/20 07:07:47;;;;;;;12.93;4.32;;;;;;;12.55;59.32;99622.06;5025188;28;20041;-85
2021/05/20 07:10:14;;;;;;;8.70;2.70;;;;;;;12.33;59.33;99620.66;5022136;28;20613;-82
2021/05/20 07:12:41;;;;;;;10.90;2.65;;;;;;;12.37;59.75;99611.88;5021138;28;20045;-83
2021/05/20 07:15:09;;;;;;;9.65;2.78;;;;;;;12.69;58.72;99603.47;5040530;28;20108;-82
2021/05/20 07:17:36;;;;;;;6.47;2.45;;;;;;;12.54;58.91;99606.34;5022385;28;20050;-83
2021/05/20 07:20:06;;;;;;;11.57;3.20;;;;;;;12.69;58.07;99603.47;4995863;28;20097;-84
2021/05/20 07:22:33;;;;;;;7.95;2.85;;;;;;;12.86;56.90;99604.03;5040863;28;20451;-82
2021/05/20 07:27:02;;;;;;;6.82;2.45;;;;;;;12.81;56.81;99587.50;5044803;28;20131;-84
2021/05/20 07:29:31;;;;;;;6.10;1.95;;;;;;;12.71;56.71;99587.72;5037959;28;20038;-81
2021/05/20 07:32:00;;;;;;;7.97;2.35;;;;;;;12.88;56.37;99581.28;5023008;28;20064;-84
2021/05/20 07:34:32;;;;;;;5.50;2.45;;;;;;;12.75;56.44;99582.41;5010542;28;21385;-81
2021/05/20 07:37:07;;;;;;;6.15;1.90;;;;;;;12.39;57.24;99565.56;4995256;28;20049;-86
2021/05/20 07:39:35;;;;;;;7.90;2.50;;;;;;;12.69;57.35;99569.41;5036448;28;20056;-77
2021/05/20 07:42:05;;;;;;;8.27;2.80;;;;;;;12.84;57.13;99556.03;5031292;28;20041;-81
2021/05/20 07:44:38;;;;;;;14.32;2.90;;;;;;;13.02;57.20;99554.78;5008195;28;20429;-82
2021/05/20 07:47:27;;;;;;;9.13;2.70;;;;;;;12.57;57.99;99544.25;5005090;28;20197;-82
2021/05/20 07:49:55;;;;;;;8.32;2.90;;;;;;;12.53;58.47;99539.97;4961019;28;20053;-80
2021/05/20 07:52:38;;;;;;;12.45;3.40;;;;;;;12.69;58.58;99530.09;5015637;28;20053;-81
2021/05/20 07:55:12;;;;;;;9.65;2.30;;;;;;;12.89;58.16;99527.09;5039511;28;20600;-78
2021/05/20 07:57:49;;;;;;;15.65;2.47;;;;;;;12.92;57.87;99525.25;4995764;28;20140;-78
2021/05/20 08:00:29;;;;;;;13.35;2.92;;;;;;;12.99;57.64;99518.16;5011768;28;20049;-80
2021/05/20 08:03:04;;;;;;;8.75;2.10;;;;;;;12.91;58.35;99506.94;5027112;28;20444;-78
2021/05/20 08:05:39;;;;;;;5.45;2.28;;;;;;;13.71;56.24;99507.00;5026743;28;20507;-78
2021/05/20 08:11:50;;;;;;;6.70;2.42;;;;;;;14.61;53.68;99505.66;4995975;28;20049;-82
2021/05/20 08:14:18;;;;;;;8.93;2.78;;;;;;;14.34;53.92;99505.41;5022119;28;20057;-85
2021/05/20 08:16:45;;;;;;;7.13;2.58;;;;;;;14.25;54.93;99504.78;5018351;28;20137;-78
2021/05/20 08:19:12;;;;;;;11.50;2.50;;;;;;;14.14;55.43;99491.09;5008476;28;20052;-82
2021/05/20 08:21:41;;;;;;;6.32;2.80;;;;;;;13.97;54.97;99481.84;5007768;28;20038;-80
2021/05/20 08:24:12;;;;;;;8.73;3.20;;;;;;;13.63;56.23;99478.28;5068203;27;997759;-81
2021/05/20 08:26:39;;;;;;;8.68;2.60;;;;;;;13.98;55.17;99472.19;5069872;28;20152;-79
2021/05/20 08:29:11;;;;;;;9.20;2.92;;;;;;;13.91;55.13;99468.84;5066999;28;20083;-77
2021/05/20 08:31:38;;;;;;;6.97;3.38;;;;;;;13.76;55.06;99461.38;5096938;28;20457;-79
2021/05/20 08:42:33;;;;;;;7.22;3.65;;;;;;;13.24;56.41;99403.09;5043356;28;20411;-79
2021/05/20 08:45:40;;;;;;;5.45;2.53;;;;;;;13.19;57.07;99402.38;5074980;27;20209;-80
2021/05/20 08:48:09;;;;;;;12.93;3.13;;;;;;;13.54;56.26;99397.13;5059098;28;20079;-79
2021/05/20 08:50:36;;;;;;;7.05;2.78;;;;;;;13.37;56.71;99384.44;5076724;28;20072;-79
2021/05/20 08:53:03;;;;;;;8.63;2.63;;;;;;;13.61;56.12;99387.38;5053339;28;20045;-78
2021/05/20 08:55:33;;;;;;;6.85;2.65;;;;;;;13.63;55.91;99369.81;5065244;28;20060;-79
2021/05/20 08:58:04;;;;;;;5.65;2.22;;;;;;;13.39;56.75;99368.63;5059408;28;20132;-77
2021/05/20 09:00:31;;;;;;;6.93;2.20;;;;;;;12.99;57.73;99366.06;5057981;28;20042;-78
2021/05/20 09:03:08;;;;;;;5.38;2.33;;;;;;;13.40;56.99;99354.63;5057434;28;20106;-78
2021/05/20 09:05:36;;;;;;;5.55;2.38;;;;;;;13.50;56.58;99358.75;5050175;28;20037;-78
2021/05/20 09:08:09;;;;;;;12.95;3.08;;;;;;;13.32;57.36;99354.81;5034245;28;20041;-78
2021/05/20 09:10:40;;;;;;;8.32;2.92;;;;;;;13.58;57.23;99343.66;5021471;28;20049;-81
2021/05/20 09:13:16;;;;;;;10.25;3.03;;;;;;;14.24;55.33;99327.91;5037265;28;20076;-81
2021/05/20 09:15:48;;;;;;;12.05;3.30;;;;;;;14.37;54.98;99334.56;5040839;28;20669;-80
2021/05/20 09:18:28;;;;;;;9.80;2.97;;;;;;;14.45;54.67;99328.22;5039057;28;20522;-80
2021/05/20 09:20:58;;;;;;;7.40;3.17;;;;;;;14.58;54.53;99314.66;5035423;28;20073;-79
2021/05/20 09:23:29;;;;;;;9.63;3.10;;;;;;;14.14;55.12;99305.44;5039167;28;20589;-79
2021/05/20 09:26:08;;;;;;;12.88;3.40;;;;;;;14.57;54.75;99288.44;5019300;28;20063;-79
2021/05/20 09:28:47;;;;;;;7.82;3.03;;;;;;;14.36;54.81;99284.66;5045308;28;20056;-79
2021/05/20 09:31:16;;;;;;;9.82;2.95;;;;;;;13.82;56.69;99285.28;5022866;28;20060;-79
2021/05/20 09:33:58;;;;;;;9.27;2.95;;;;;;;14.04;56.39;99269.81;5035865;28;20121;-78
2021/05/20 09:36:25;;;;;;;;;;;;;;;14.13;56.61;99260.81;5031465;28;20111;-78
2021/05/20 09:39:13;;;;;;;24.85;3.35;;;;;;;14.45;55.85;99265.13;5015449;28;19955;-77
2021/05/20 09:41:41;;;;;;;47.28;6.15;;;;;;;14.89;54.88;99245.38;5050726;28;20045;-79
2021/05/20 09:44:31;;;;;;;10.70;2.70;;;;;;;14.95;54.30;99234.66;5038827;28;20116;-78
2021/05/20 09:47:00;;;;;;;7.90;2.50;;;;;;;14.83;54.33;99234.13;5048725;28;20079;-80
2021/05/20 09:49:28;;;;;;;12.35;3.35;;;;;;;14.83;54.21;99228.88;5053318;28;20044;-79
2021/05/20 09:52:19;;;;;;;5.68;2.22;;;;;;;14.23;55.57;99230.72;5038395;28;20515;-81
2021/05/20 09:54:50;;;;;;;18.42;2.35;;;;;;;14.26;55.98;99225.38;5055016;28;20053;-85
2021/05/20 09:57:26;;;;;;;10.88;2.70;;;;;;;14.05;56.27;99219.00;5028472;28;20059;-84
2021/05/20 10:00:10;;;;;;;10.68;2.35;;;;;;;14.05;56.88;99207.63;5053579;28;20469;-79
2021/05/20 10:02:40;;;;;;;9.88;2.22;;;;;;;13.72;57.79;99191.91;5046205;28;20051;-81
2021/05/20 10:05:40;;;;;;;12.27;2.10;;;;;;;13.76;57.52;99183.06;5020657;28;20487;-80
2021/05/20 10:08:11;;;;;;;13.85;4.05;;;;;;;13.51;58.39;99192.53;4999051;28;20394;-83
2021/05/20 10:10:46;;;;;;;11.48;2.80;;;;;;;13.31;58.51;99187.81;4976495;28;20505;-81
2021/05/20 10:13:31;;;;;;;13.80;3.00;;;;;;;13.38;58.45;99183.28;5001578;28;20151;-79
2021/05/20 10:16:01;;;;;;;10.25;2.85;;;;;;;13.54;58.69;99176.69;4986349;28;20125;-81
2021/05/20 10:18:28;;;;;;;20.27;4.15;;;;;;;13.65;58.56;99166.75;4985888;28;20081;-80
2021/05/20 10:21:04;;;;;;;43.17;5.88;;;;;;;13.77;58.07;99171.66;5000850;28;20046;-83
2021/05/20 10:23:32;;;;;;;27.55;4.03;;;;;;;14.17;57.17;99165.22;4989601;28;20137;-80
2021/05/20 10:26:00;;;;;;;10.15;2.70;;;;;;;14.42;56.55;99168.00;5005456;28;20136;-80
2021/05/20 10:28:27;;;;;;;21.02;3.80;;;;;;;14.20;58.04;99147.59;4990191;28;20353;-85
2021/05/20 10:30:58;;;;;;;8.82;2.67;;;;;;;13.78;59.72;99133.13;4988898;28;20512;-82
2021/05/20 10:33:31;;;;;;;11.63;2.15;;;;;;;13.53;60.44;99131.22;4981562;28;20077;-81
2021/05/20 10:36:02;;;;;;;31.42;4.85;;;;;;;13.46;61.18;99124.44;4960013;28;20049;-83
2021/05/20 10:38:39;;;;;;;13.32;3.08;;;;;;;13.56;62.61;99109.28;4969419;28;20060;-79
2021/05/20 10:41:20;;;;;;;11.05;2.75;;;;;;;13.57;62.60;99111.00;4971848;28;20477;-78
2021/05/20 10:46:59;;;;;;;10.43;2.42;;;;;;;13.50;62.22;99101.56;5029880;27;20797;-78
2021/05/20 10:49:45;;;;;;;7.80;2.17;;;;;;;13.48;61.89;99109.47;5018026;28;20057;-78
2021/05/20 10:52:46;;;;;;;11.10;3.45;;;;;;;13.51;61.82;99119.91;5036413;28;24339;-82
2021/05/20 10:55:15;;;;;;;8.15;2.30;;;;;;;13.59;60.88;99110.94;4980327;28;20342;-80
2021/05/20 10:57:46;;;;;;;6.30;2.00;;;;;;;13.49;61.23;99119.09;4984868;28;20050;-79
2021/05/20 11:00:38;;;;;;;9.13;2.20;;;;;;;13.37;62.46;99101.06;5021261;28;20059;-80
2021/05/20 11:03:08;;;;;;;22.77;3.20;;;;;;;13.63;63.22;99105.56;5023938;28;20132;-80
2021/05/20 11:05:41;;;;;;;36.22;5.70;;;;;;;13.04;65.05;99087.06;5003089;28;20042;-82
2021/05/20 11:08:28;;;;;;;8.82;2.53;;;;;;;12.79;66.48;99109.63;5021289;28;20052;-79
2021/05/20 11:11:07;;;;;;;9.27;2.22;;;;;;;12.47;68.18;99097.28;4998058;28;20053;-83
2021/05/20 11:13:41;;;;;;;6.43;2.28;;;;;;;12.04;70.35;99101.81;5014657;28;20268;-84
2021/05/20 11:16:19;;;;;;;21.10;3.42;;;;;;;12.11;71.09;99096.44;4999162;28;20396;-83
2021/05/20 11:18:48;;;;;;;14.07;2.78;;;;;;;12.39;71.12;99094.00;5041378;28;20123;-80
2021/05/20 11:21:20;;;;;;;20.23;3.03;;;;;;;11.87;72.05;99083.91;4974480;28;20049;-84
2021/05/20 11:28:07;;;;;;;9.63;2.38;;;;;;;11.77;74.42;99058.81;5016810;28;20056;-86
2021/05/20 11:31:09;;;;;;;7.72;2.88;;;;;;;11.43;75.10;99047.31;4926951;28;20042;-77
2021/05/20 11:34:06;;;;;;;8.82;2.78;;;;;;;11.48;74.84;99037.63;4958795;28;20070;-83
2021/05/20 11:36:38;;;;;;;13.80;2.40;;;;;;;11.35;76.50;99023.97;4977374;28;20514;-79
2021/05/20 11:39:10;;;;;;;13.77;2.70;;;;;;;11.51;76.69;99014.03;4983532;28;20043;-82
2021/05/20 11:41:40;;;;;;;10.48;2.50;;;;;;;11.85;75.46;99012.38;4985599;28;20105;-77
2021/05/20 11:44:15;;;;;;;10.02;3.05;;;;;;;11.92;76.06;98995.66;4966501;28;20038;-78
2021/05/20 11:46:45;;;;;;;19.60;3.90;;;;;;;11.94;76.22;98985.16;4978037;28;20506;-77
2021/05/20 11:49:21;;;;;;;11.68;3.72;;;;;;;11.47;77.54;98981.84;4943973;28;20055;-75
2021/05/20 11:51:54;;;;;;;15.32;3.63;;;;;;;11.58;77.52;98977.22;4978764;28;20049;-79
2021/05/20 11:54:31;;;;;;;10.32;3.40;;;;;;;11.37;77.83;98973.34;4950960;28;20472;-79
2021/05/20 11:57:00;;;;;;;16.23;3.83;;;;;;;11.52;77.75;98958.19;4927777;28;20047;-78
2021/05/20 11:59:34;;;;;;;13.07;3.45;;;;;;;11.66;77.25;98959.59;4947186;28;20101;-78
2021/05/20 12:02:02;;;;;;;9.38;2.75;;;;;;;11.16;78.37;98936.34;4990276;28;20050;-78
2021/05/20 12:04:30;;;;;;;7.38;3.30;;;;;;;11.73;78.08;98931.56;4980808;28;20053;-76
2021/05/20 12:07:04;;;;;;;18.13;3.47;;;;;;;11.79;77.86;98923.59;4996195;28;20078;-78
2021/05/20 12:09:32;;;;;;;5.93;3.17;;;;;;;11.72;77.57;98901.03;4976548;28;20082;-77
2021/05/20 12:12:09;;;;;;;8.00;3.05;;;;;;;11.73;77.75;98898.41;4979897;28;20084;-78
2021/05/20 12:14:36;;;;;;;9.63;2.53;;;;;;;11.44;76.90;98892.13;4986169;28;20054;-78
2021/05/20 12:19:02;;;;;;;7.40;2.90;;;;;;;11.26;76.95;98873.38;4887660;27;4047838;-78
2021/05/20 12:21:34;;;;;;;9.05;2.28;;;;;;;11.44;75.53;98869.47;5030759;28;20049;-76
2021/05/20 12:24:02;;;;;;;12.40;3.17;;;;;;;11.88;74.73;98857.91;5025421;28;20052;-78